createdAt,value
2017-06-25T00:00:19.647Z,9.80
2017-06-25T00:02:47.107Z,10.20
2017-06-25T00:05:14.468Z,11.07
2017-06-25T00:07:41.788Z,9.13
2017-06-25T00:10:09.109Z,9.83
2017-06-25T00:12:36.418Z,10.30
2017-06-25T00:15:03.716Z,10.80
2017-06-25T00:17:31.065Z,10.67
2017-06-25T00:19:58.384Z,10.93
2017-06-25T00:22:25.735Z,11.00
2017-06-25T00:24:53.067Z,11.10
2017-06-25T00:27:20.364Z,10.27
2017-06-25T00:29:47.684Z,11.00
2017-06-25T00:32:15.297Z,10.70
2017-06-25T00:34:42.751Z,11.10
2017-06-25T00:37:10.052Z,10.53
2017-06-25T00:39:37.389Z,9.70
2017-06-25T00:42:04.686Z,10.67
2017-06-25T00:44:32.036Z,11.17
2017-06-25T00:47:00.273Z,11.70
2017-06-25T00:49:27.616Z,10.93
2017-06-25T00:51:54.954Z,11.47
2017-06-25T00:54:28.084Z,10.40
2017-06-25T00:56:55.390Z,11.30
2017-06-25T00:59:22.695Z,10.43
2017-06-25T01:01:50.043Z,11.60
2017-06-25T01:04:17.339Z,11.27
2017-06-25T01:06:44.645Z,11.03
2017-06-25T01:09:11.974Z,10.97
2017-06-25T01:11:39.308Z,11.70
2017-06-25T01:14:06.631Z,11.97
2017-06-25T01:16:33.951Z,12.13
2017-06-25T01:19:01.254Z,11.73
2017-06-25T01:21:28.611Z,12.17
2017-06-25T01:23:56.174Z,11.13
2017-06-25T01:26:23.813Z,11.60
2017-06-25T01:28:51.119Z,11.27
2017-06-25T01:31:18.439Z,11.20
2017-06-25T01:33:45.769Z,12.07
2017-06-25T01:36:13.223Z,11.20
2017-06-25T01:38:40.523Z,11.50
2017-06-25T01:41:07.848Z,11.67
2017-06-25T01:43:35.147Z,11.70
2017-06-25T01:46:02.480Z,11.97
2017-06-25T01:48:29.805Z,11.63
2017-06-25T01:50:57.135Z,10.73
2017-06-25T01:53:24.456Z,11.50
2017-06-25T01:55:51.754Z,11.50
2017-06-25T01:58:19.138Z,11.10
2017-06-25T02:00:46.449Z,12.47
2017-06-25T02:03:13.791Z,11.40
2017-06-25T02:05:41.106Z,11.27
2017-06-25T02:08:08.450Z,11.10
2017-06-25T02:10:35.758Z,12.50
2017-06-25T02:13:03.063Z,11.67
2017-06-25T02:15:30.407Z,11.20
2017-06-25T02:17:58.643Z,11.90
2017-06-25T02:20:25.965Z,11.43
2017-06-25T02:22:53.263Z,11.47
2017-06-25T02:25:20.603Z,11.90
2017-06-25T02:27:47.903Z,11.67
2017-06-25T02:30:15.199Z,12.57
2017-06-25T02:32:42.520Z,11.30
2017-06-25T02:35:09.819Z,11.83
2017-06-25T02:37:37.155Z,11.53
2017-06-25T02:40:04.471Z,12.20
2017-06-25T02:42:31.791Z,10.87
2017-06-25T02:44:59.092Z,11.30
2017-06-25T02:47:26.434Z,11.20
2017-06-25T02:49:53.752Z,11.50
2017-06-25T02:52:21.053Z,11.10
2017-06-25T02:54:48.376Z,11.97
2017-06-25T02:57:15.700Z,12.37
2017-06-25T02:59:43.015Z,10.50
2017-06-25T03:02:10.315Z,11.10
2017-06-25T03:04:37.619Z,12.17
2017-06-25T03:07:04.949Z,12.20
2017-06-25T03:09:38.121Z,10.73
2017-06-25T03:12:05.486Z,12.43
2017-06-25T03:14:32.884Z,11.37
2017-06-25T03:17:00.203Z,11.80
2017-06-25T03:19:27.503Z,12.23
2017-06-25T03:21:54.856Z,11.67
2017-06-25T03:24:22.192Z,11.07
2017-06-25T03:26:49.565Z,12.77
2017-06-25T03:29:16.899Z,11.33
2017-06-25T03:31:44.200Z,11.73
2017-06-25T03:34:11.520Z,12.00
2017-06-25T03:36:38.819Z,12.63
2017-06-25T03:39:06.140Z,12.00
2017-06-25T03:41:33.475Z,11.63
2017-06-25T03:44:00.847Z,12.20
2017-06-25T03:46:28.755Z,12.37
2017-06-25T03:48:56.060Z,12.10
2017-06-25T03:51:23.375Z,12.87
2017-06-25T03:53:50.682Z,12.67
2017-06-25T03:56:18.029Z,12.33
2017-06-25T03:58:45.354Z,11.40
2017-06-25T04:01:12.666Z,11.97
2017-06-25T04:03:39.983Z,11.83
2017-06-25T04:06:07.276Z,12.23
2017-06-25T04:08:34.616Z,11.40
2017-06-25T04:11:01.911Z,13.10
2017-06-25T04:13:29.231Z,12.93
2017-06-25T04:15:56.551Z,12.33
2017-06-25T04:18:24.525Z,11.60
2017-06-25T04:20:51.824Z,12.23
2017-06-25T04:23:19.131Z,11.40
2017-06-25T04:25:46.458Z,12.40
2017-06-25T04:28:13.771Z,11.80
2017-06-25T04:30:41.084Z,11.47
2017-06-25T04:33:08.375Z,12.00
2017-06-25T04:35:35.704Z,11.10
2017-06-25T04:38:03.002Z,12.20
2017-06-25T04:40:30.336Z,11.87
2017-06-25T04:42:57.635Z,11.60
2017-06-25T04:45:24.993Z,11.30
2017-06-25T04:47:52.339Z,10.40
2017-06-25T04:50:19.657Z,10.10
2017-06-25T04:52:46.991Z,11.40
2017-06-25T04:55:14.311Z,11.67
2017-06-25T04:57:41.627Z,10.67
2017-06-25T05:00:08.927Z,10.63
2017-06-25T05:02:36.287Z,10.77
2017-06-25T05:05:03.587Z,10.20
2017-06-25T05:07:30.919Z,10.30
2017-06-25T05:09:58.270Z,11.10
2017-06-25T05:12:25.601Z,11.13
2017-06-25T05:14:52.915Z,10.87
2017-06-25T05:17:20.225Z,10.60
2017-06-25T05:19:47.547Z,10.60
2017-06-25T05:22:14.867Z,11.17
2017-06-25T05:24:42.223Z,11.07
2017-06-25T05:27:09.514Z,10.33
2017-06-25T05:29:36.812Z,10.13
2017-06-25T05:32:04.130Z,8.67
2017-06-25T05:34:31.464Z,9.40
2017-06-25T05:36:58.758Z,8.60
2017-06-25T05:39:26.047Z,8.50
2017-06-25T05:41:53.355Z,9.27
2017-06-25T05:44:20.643Z,9.57
2017-06-25T05:46:47.975Z,8.67
2017-06-25T05:49:15.299Z,9.10
2017-06-25T05:51:42.647Z,8.87
2017-06-25T05:54:09.935Z,7.93
2017-06-25T05:56:37.251Z,8.77
2017-06-25T05:59:04.560Z,8.07
2017-06-25T06:01:31.866Z,8.17
2017-06-25T06:03:59.174Z,8.00
2017-06-25T06:06:26.475Z,7.97
2017-06-25T06:08:53.778Z,7.43
2017-06-25T06:11:21.070Z,8.20
2017-06-25T06:13:48.381Z,8.20
2017-06-25T06:16:15.667Z,7.73
2017-06-25T06:18:43.002Z,7.80
2017-06-25T06:21:10.291Z,7.90
2017-06-25T06:23:37.591Z,7.70
2017-06-25T06:26:04.920Z,8.20
2017-06-25T06:28:32.269Z,7.90
2017-06-25T06:30:59.586Z,8.40
2017-06-25T06:33:27.047Z,7.90
2017-06-25T06:35:54.394Z,7.53
2017-06-25T06:38:21.726Z,8.30
2017-06-25T06:40:49.051Z,7.73
2017-06-25T06:43:16.384Z,8.30
2017-06-25T06:45:43.673Z,7.87
2017-06-25T06:48:11.011Z,8.40
2017-06-25T06:50:38.350Z,8.80
2017-06-25T06:53:05.690Z,8.63
2017-06-25T06:55:33.016Z,7.80
2017-06-25T06:58:00.376Z,8.30
2017-06-25T07:00:28.083Z,8.53
2017-06-25T07:02:55.418Z,7.10
2017-06-25T07:05:22.739Z,7.80
2017-06-25T07:07:50.084Z,7.67
2017-06-25T07:10:17.372Z,7.90
2017-06-25T07:12:44.708Z,7.87
2017-06-25T07:15:12.000Z,8.30
2017-06-25T07:17:39.321Z,8.00
2017-06-25T07:20:06.615Z,8.03
2017-06-25T07:22:33.923Z,7.80
2017-06-25T07:25:01.211Z,8.27
2017-06-25T07:27:28.562Z,8.80
2017-06-25T07:29:55.875Z,7.80
2017-06-25T07:32:23.211Z,7.60
2017-06-25T07:34:50.491Z,8.03
2017-06-25T07:37:17.796Z,8.90
2017-06-25T07:39:45.128Z,8.43
2017-06-25T07:42:12.424Z,9.60
2017-06-25T07:44:39.731Z,7.90
2017-06-25T07:47:07.018Z,8.57
2017-06-25T07:49:34.328Z,8.00
2017-06-25T07:52:01.623Z,8.00
2017-06-25T07:54:28.948Z,8.87
2017-06-25T07:56:56.370Z,7.90
2017-06-25T07:59:23.691Z,8.50
2017-06-25T08:01:50.984Z,7.50
2017-06-25T08:04:18.326Z,7.60
2017-06-25T08:06:45.635Z,9.00
2017-06-25T08:09:12.939Z,7.47
2017-06-25T08:11:40.231Z,7.50
2017-06-25T08:14:07.604Z,6.70
2017-06-25T08:16:34.913Z,7.83
2017-06-25T08:19:02.239Z,7.10
2017-06-25T08:21:29.548Z,7.50
2017-06-25T08:23:56.848Z,7.60
2017-06-25T08:26:24.195Z,7.27
2017-06-25T08:28:51.512Z,7.20
2017-06-25T08:31:18.824Z,7.40
2017-06-25T08:33:46.118Z,7.70
2017-06-25T08:36:13.431Z,7.17
2017-06-25T08:38:40.717Z,6.40
2017-06-25T08:41:08.075Z,6.90
2017-06-25T08:43:35.369Z,6.80
2017-06-25T08:46:02.955Z,7.10
2017-06-25T08:48:30.234Z,7.03
2017-06-25T08:50:57.538Z,6.53
2017-06-25T08:53:25.144Z,6.87
2017-06-25T08:55:52.473Z,6.90
2017-06-25T08:58:19.810Z,7.50
2017-06-25T09:00:47.099Z,7.47
2017-06-25T09:03:14.419Z,7.13
2017-06-25T09:05:41.752Z,8.17
2017-06-25T09:08:09.066Z,8.60
2017-06-25T09:10:36.359Z,8.07
2017-06-25T09:13:03.675Z,8.70
2017-06-25T09:15:31.002Z,8.40
2017-06-25T09:17:58.303Z,8.63
2017-06-25T09:20:25.596Z,7.47
2017-06-25T09:22:52.912Z,9.20
2017-06-25T09:25:20.213Z,9.70
2017-06-25T09:27:47.860Z,9.10
2017-06-25T09:30:15.155Z,8.67
2017-06-25T09:32:42.467Z,9.80
2017-06-25T09:35:09.764Z,8.60
2017-06-25T09:37:37.093Z,8.47
2017-06-25T09:40:04.403Z,9.17
2017-06-25T09:42:31.704Z,9.17
2017-06-25T09:44:59.345Z,9.37
2017-06-25T09:47:26.644Z,9.67
2017-06-25T09:49:53.973Z,10.07
2017-06-25T09:52:21.270Z,10.80
2017-06-25T09:54:48.584Z,9.87
2017-06-25T09:57:15.875Z,11.30
2017-06-25T09:59:43.367Z,10.67
2017-06-25T10:02:10.683Z,10.80
2017-06-25T10:04:37.999Z,9.53
2017-06-25T10:07:05.294Z,9.17
2017-06-25T10:09:32.637Z,9.67
2017-06-25T10:11:59.944Z,9.40
2017-06-25T10:14:27.247Z,8.00
2017-06-25T10:16:54.573Z,8.10
2017-06-25T10:19:22.197Z,8.40
2017-06-25T10:21:49.515Z,7.93
2017-06-25T10:24:16.830Z,8.30
2017-06-25T10:26:44.114Z,7.40
2017-06-25T10:29:11.475Z,6.30
2017-06-25T10:31:38.771Z,6.50
2017-06-25T10:34:06.060Z,6.50
2017-06-25T10:36:33.371Z,5.73
2017-06-25T10:39:00.696Z,5.80
2017-06-25T10:41:28.019Z,4.83
2017-06-25T10:43:55.346Z,5.83
2017-06-25T10:46:22.656Z,5.50
2017-06-25T10:48:49.964Z,5.47
2017-06-25T10:51:17.293Z,4.93
2017-06-25T10:53:44.583Z,4.83
2017-06-25T10:56:11.889Z,4.80
2017-06-25T10:58:39.188Z,5.37
2017-06-25T11:01:06.489Z,4.67
2017-06-25T11:03:33.851Z,5.00
2017-06-25T11:06:02.241Z,4.50
2017-06-25T11:08:29.546Z,4.80
2017-06-25T11:10:56.875Z,4.67
2017-06-25T11:13:24.196Z,5.00
2017-06-25T11:15:51.530Z,4.33
2017-06-25T11:18:18.827Z,4.20
2017-06-25T11:20:46.118Z,4.43
2017-06-25T11:23:13.439Z,4.33
2017-06-25T11:25:40.728Z,4.43
2017-06-25T11:28:08.018Z,4.20
2017-06-25T11:30:35.335Z,4.10
2017-06-25T11:33:02.631Z,4.10
2017-06-25T11:35:29.987Z,3.70
2017-06-25T11:37:57.294Z,4.00
2017-06-25T11:40:24.605Z,4.30
2017-06-25T11:42:51.932Z,3.60
2017-06-25T11:45:19.210Z,4.13
2017-06-25T11:47:46.531Z,4.03
2017-06-25T11:50:13.822Z,3.67
2017-06-25T11:52:41.233Z,3.77
2017-06-25T11:55:08.541Z,4.00
2017-06-25T11:57:35.831Z,3.90
2017-06-25T12:00:03.138Z,3.60
2017-06-25T12:02:30.444Z,3.53
2017-06-25T12:04:57.801Z,3.97
2017-06-25T12:07:25.083Z,4.93
2017-06-25T12:09:52.529Z,5.33
2017-06-25T12:12:19.896Z,6.20
2017-06-25T12:14:47.181Z,6.90
2017-06-25T12:17:14.542Z,6.70
2017-06-25T12:19:41.838Z,7.20
2017-06-25T12:22:09.142Z,7.90
2017-06-25T12:24:36.447Z,7.20
2017-06-25T12:27:03.735Z,7.10
2017-06-25T12:29:31.104Z,6.10
2017-06-25T12:31:58.404Z,0.50
2017-06-25T12:34:25.711Z,1.23
2017-06-25T12:36:53.195Z,0.40
2017-06-25T12:39:20.490Z,0.40
2017-06-25T12:41:47.823Z,0.40
2017-06-25T12:44:15.411Z,0.40
2017-06-25T12:46:42.703Z,0.40
2017-06-25T12:49:10.015Z,0.40
2017-06-25T12:51:37.333Z,0.40
2017-06-25T12:54:04.639Z,0.40
2017-06-25T12:56:32.827Z,0.40
2017-06-25T12:59:00.155Z,0.40
2017-06-25T13:01:27.611Z,1.10
2017-06-25T13:03:54.931Z,0.40
2017-06-25T13:06:22.218Z,0.70
2017-06-25T13:08:50.481Z,0.50
2017-06-25T13:11:17.759Z,0.50
2017-06-25T13:13:45.063Z,0.50
2017-06-25T13:16:12.679Z,0.50
2017-06-25T13:18:39.979Z,0.50
2017-06-25T13:21:07.525Z,0.50
2017-06-25T13:23:34.858Z,0.50
2017-06-25T13:26:02.166Z,0.50
2017-06-25T13:28:29.457Z,0.50
2017-06-25T13:30:57.055Z,0.50
2017-06-25T13:33:24.340Z,0.50
2017-06-25T13:35:51.643Z,0.50
2017-06-25T13:38:18.967Z,0.50
2017-06-25T13:40:46.285Z,1.07
2017-06-25T13:43:13.574Z,0.70
2017-06-25T13:45:41.202Z,0.50
2017-06-25T13:48:08.483Z,0.50
2017-06-25T13:50:35.817Z,0.50
2017-06-25T13:53:03.148Z,1.73
2017-06-25T13:55:30.476Z,0.50
2017-06-25T13:57:57.791Z,0.50
2017-06-25T14:00:25.104Z,0.50
2017-06-25T14:02:52.396Z,0.50
2017-06-25T14:05:19.725Z,0.50
2017-06-25T14:07:46.999Z,2.10
2017-06-25T14:10:14.336Z,0.60
2017-06-25T14:12:41.643Z,0.50
2017-06-25T14:15:08.932Z,0.50
2017-06-25T14:17:36.246Z,0.50
2017-06-25T14:20:03.650Z,0.60
2017-06-25T14:22:30.956Z,0.60
2017-06-25T14:24:58.257Z,0.60
2017-06-25T14:27:25.588Z,0.60
2017-06-25T14:29:52.885Z,0.60
2017-06-25T14:32:20.183Z,0.60
2017-06-25T14:34:47.490Z,0.60
2017-06-25T14:37:14.779Z,0.60
2017-06-25T14:39:42.140Z,0.60
2017-06-25T14:42:09.445Z,0.60
2017-06-25T14:44:36.732Z,0.63
2017-06-25T14:47:04.031Z,1.37
2017-06-25T14:49:31.320Z,0.60
2017-06-25T14:51:58.666Z,0.60
2017-06-25T14:54:25.965Z,0.70
2017-06-25T14:56:53.271Z,0.60
2017-06-25T14:59:20.582Z,0.60
2017-06-25T15:01:47.881Z,0.63
2017-06-25T15:04:15.213Z,0.70
2017-06-25T15:06:42.546Z,0.60
2017-06-25T15:09:09.872Z,0.60
2017-06-25T15:11:37.173Z,0.60
2017-06-25T15:14:04.476Z,0.70
2017-06-25T15:16:31.839Z,0.63
2017-06-25T15:18:59.152Z,0.70
2017-06-25T15:21:26.478Z,0.60
2017-06-25T15:23:53.759Z,0.80
2017-06-25T15:26:21.076Z,0.60
2017-06-25T15:28:48.395Z,0.67
2017-06-25T15:31:15.699Z,0.60
2017-06-25T15:33:43.006Z,0.60
2017-06-25T15:36:10.336Z,0.63
2017-06-25T15:38:37.670Z,0.60
2017-06-25T15:41:05.037Z,0.60
2017-06-25T15:43:32.338Z,0.70
2017-06-25T15:45:59.663Z,0.60
2017-06-25T15:48:27.242Z,0.70
2017-06-25T15:50:54.543Z,0.70
2017-06-25T15:53:21.832Z,0.60
2017-06-25T15:55:49.167Z,0.60
2017-06-25T15:58:16.509Z,0.60
2017-06-25T16:00:43.863Z,0.60
2017-06-25T16:03:11.191Z,0.60
2017-06-25T16:05:38.545Z,0.60
2017-06-25T16:08:05.860Z,0.60
2017-06-25T16:10:33.199Z,0.60
2017-06-25T16:13:00.479Z,0.90
2017-06-25T16:15:27.784Z,0.60
2017-06-25T16:17:55.240Z,0.57
2017-06-25T16:20:22.579Z,0.60
2017-06-25T16:22:49.935Z,1.13
2017-06-25T16:25:17.266Z,1.20
2017-06-25T16:27:44.589Z,0.60
2017-06-25T16:30:11.899Z,0.60
2017-06-25T16:32:39.192Z,0.60
2017-06-25T16:35:06.521Z,0.60
2017-06-25T16:37:33.840Z,0.60
2017-06-25T16:40:01.250Z,0.50
2017-06-25T16:42:28.531Z,0.60
2017-06-25T16:44:55.833Z,0.60
2017-06-25T16:47:23.147Z,0.60
2017-06-25T16:49:50.454Z,0.60
2017-06-25T16:52:17.788Z,0.60
2017-06-25T16:54:45.090Z,0.60
2017-06-25T16:57:12.405Z,0.63
2017-06-25T16:59:39.724Z,0.50
2017-06-25T17:02:07.050Z,0.60
2017-06-25T17:04:34.343Z,0.53
2017-06-25T17:07:01.656Z,0.50
2017-06-25T17:09:28.938Z,0.50
2017-06-25T17:11:56.250Z,0.50
2017-06-25T17:14:23.570Z,0.50
2017-06-25T17:16:50.881Z,0.50
2017-06-25T17:19:18.172Z,0.50
2017-06-25T17:21:45.525Z,0.50
2017-06-25T17:24:12.820Z,0.50
2017-06-25T17:26:40.135Z,0.50
2017-06-25T17:29:07.420Z,1.57
2017-06-25T17:31:34.751Z,0.50
2017-06-25T17:34:02.093Z,0.50
2017-06-25T17:36:29.414Z,1.17
2017-06-25T17:38:56.713Z,0.50
2017-06-25T17:41:24.049Z,0.80
2017-06-25T17:43:51.339Z,0.50
2017-06-25T17:46:18.643Z,0.70
2017-06-25T17:48:45.935Z,0.50
2017-06-25T17:51:14.044Z,0.50
2017-06-25T17:53:41.330Z,0.50
2017-06-25T17:56:08.864Z,1.33
2017-06-25T17:58:36.171Z,0.50
2017-06-25T18:01:03.473Z,1.00
2017-06-25T18:03:30.784Z,0.87
2017-06-25T18:05:58.079Z,0.50
2017-06-25T18:08:25.392Z,0.53
2017-06-25T18:10:52.719Z,0.60
2017-06-25T18:13:20.056Z,0.50
2017-06-25T18:15:47.349Z,0.90
2017-06-25T18:18:14.651Z,0.60
2017-06-25T18:20:41.999Z,0.53
2017-06-25T18:23:09.324Z,0.50
2017-06-25T18:25:36.830Z,0.70
2017-06-25T18:28:05.016Z,0.60
2017-06-25T18:30:32.354Z,0.50
2017-06-25T18:32:59.711Z,0.57
2017-06-25T18:35:27.009Z,0.60
2017-06-25T18:37:54.316Z,0.60
2017-06-25T18:40:21.620Z,0.60
2017-06-25T18:42:48.928Z,0.60
2017-06-25T18:45:16.214Z,0.60
2017-06-25T18:47:43.602Z,0.80
2017-06-25T18:50:10.896Z,0.60
2017-06-25T18:52:38.215Z,0.50
2017-06-25T18:55:05.496Z,0.60
2017-06-25T18:57:32.805Z,0.87
2017-06-25T19:00:00.094Z,0.60
2017-06-25T19:02:28.344Z,0.60
2017-06-25T19:04:55.667Z,0.50
2017-06-25T19:07:23.116Z,0.50
2017-06-25T19:09:50.427Z,0.50
2017-06-25T19:12:17.741Z,0.60
2017-06-25T19:14:45.043Z,0.60
2017-06-25T19:17:12.403Z,0.50
2017-06-25T19:19:39.691Z,0.60
2017-06-25T19:22:07.041Z,0.50
2017-06-25T19:24:34.335Z,0.60
2017-06-25T19:27:01.669Z,0.60
2017-06-25T19:29:29.015Z,0.57
2017-06-25T19:31:56.570Z,0.60
2017-06-25T19:34:23.872Z,0.60
2017-06-25T19:36:51.171Z,0.60
2017-06-25T19:39:18.480Z,0.50
2017-06-25T19:41:45.838Z,0.50
2017-06-25T19:44:13.311Z,0.60
2017-06-25T19:46:40.631Z,0.60
2017-06-25T19:49:07.935Z,0.70
2017-06-25T19:51:35.277Z,0.60
2017-06-25T19:54:02.656Z,0.97
2017-06-25T19:56:29.969Z,0.50
2017-06-25T19:58:57.670Z,0.60
2017-06-25T20:01:24.979Z,0.57
2017-06-25T20:03:52.883Z,0.80
2017-06-25T20:06:20.212Z,0.50
2017-06-25T20:08:47.548Z,0.50
2017-06-25T20:11:14.847Z,0.60
2017-06-25T20:13:42.175Z,0.50
2017-06-25T20:16:09.506Z,0.60
2017-06-25T20:18:36.823Z,0.50
2017-06-25T20:21:04.168Z,0.60
2017-06-25T20:23:31.476Z,0.50
2017-06-25T20:25:58.935Z,0.60
2017-06-25T20:28:26.409Z,0.60
2017-06-25T20:30:53.736Z,0.60
2017-06-25T20:33:21.066Z,0.60
2017-06-25T20:35:48.368Z,0.77
2017-06-25T20:38:15.675Z,0.50
2017-06-25T20:40:42.996Z,0.50
2017-06-25T20:43:10.315Z,0.60
2017-06-25T20:45:37.605Z,0.60
2017-06-25T20:48:05.008Z,0.50
2017-06-25T20:50:32.284Z,0.63
2017-06-25T20:52:59.638Z,0.70
2017-06-25T20:55:27.005Z,0.50
2017-06-25T20:57:54.330Z,0.60
2017-06-25T21:00:21.610Z,1.27
2017-06-25T21:02:48.930Z,1.00
2017-06-25T21:05:16.217Z,0.50
2017-06-25T21:07:43.580Z,0.50
2017-06-25T21:10:10.888Z,0.50
2017-06-25T21:12:38.249Z,0.60
2017-06-25T21:15:05.561Z,0.50
2017-06-25T21:17:32.883Z,0.50
2017-06-25T21:20:00.182Z,0.50
2017-06-25T21:22:27.592Z,0.50
2017-06-25T21:24:54.928Z,0.50
2017-06-25T21:27:22.229Z,1.37
2017-06-25T21:29:49.552Z,0.50
2017-06-25T21:32:16.839Z,0.50
2017-06-25T21:34:44.624Z,0.50
2017-06-25T21:37:11.929Z,0.50
2017-06-25T21:39:39.248Z,0.70
2017-06-25T21:42:06.540Z,0.60
2017-06-25T21:44:33.868Z,0.70
2017-06-25T21:47:01.204Z,0.50
2017-06-25T21:49:28.552Z,0.50
2017-06-25T21:51:55.879Z,0.50
2017-06-25T21:54:23.189Z,0.50
2017-06-25T21:56:50.481Z,0.50
2017-06-25T21:59:17.840Z,0.50
2017-06-25T22:01:45.185Z,0.50
2017-06-25T22:04:12.484Z,0.50
2017-06-25T22:06:39.810Z,0.50
2017-06-25T22:09:07.580Z,0.50
2017-06-25T22:11:34.888Z,0.50
2017-06-25T22:14:02.368Z,0.50
2017-06-25T22:16:29.716Z,0.67
2017-06-25T22:18:57.047Z,0.50
2017-06-25T22:21:24.358Z,0.50
2017-06-25T22:23:51.662Z,0.50
2017-06-25T22:26:19.013Z,0.50
2017-06-25T22:28:46.616Z,0.50
2017-06-25T22:31:13.937Z,0.50
2017-06-25T22:33:41.231Z,0.50
2017-06-25T22:36:08.533Z,0.50
2017-06-25T22:38:35.841Z,0.50
2017-06-25T22:41:03.138Z,0.50
2017-06-25T22:43:30.463Z,0.50
2017-06-25T22:45:57.799Z,0.50
2017-06-25T22:48:25.128Z,0.50
2017-06-25T22:50:52.446Z,0.50
2017-06-25T22:53:19.743Z,0.50
2017-06-25T22:55:47.072Z,0.50
2017-06-25T22:58:14.380Z,0.60
2017-06-25T23:00:41.680Z,0.50
2017-06-25T23:03:08.996Z,0.50
2017-06-25T23:05:36.297Z,0.50
2017-06-25T23:08:03.609Z,0.50
2017-06-25T23:10:30.944Z,0.50
2017-06-25T23:12:58.256Z,0.50
2017-06-25T23:15:25.581Z,0.50
2017-06-25T23:17:52.867Z,0.50
2017-06-25T23:20:20.185Z,0.50
2017-06-25T23:22:47.521Z,0.50
2017-06-25T23:25:14.866Z,0.50
2017-06-25T23:27:42.189Z,0.77
2017-06-25T23:30:09.501Z,1.20
2017-06-25T23:32:36.977Z,0.50
2017-06-25T23:35:04.301Z,0.60
2017-06-25T23:37:31.599Z,0.80
2017-06-25T23:39:58.911Z,0.50
2017-06-25T23:42:26.253Z,0.50
2017-06-25T23:44:53.593Z,0.50
2017-06-25T23:47:20.889Z,0.83
2017-06-25T23:49:48.181Z,0.50
2017-06-25T23:52:15.526Z,0.50
2017-06-25T23:54:42.852Z,0.40
2017-06-25T23:57:10.202Z,0.50
2017-06-25T23:59:37.520Z,0.50
